Time;durP1;ratioP1;P1;durP2;ratioP2;P2;SDS_P1;SDS_P2;PMS_P1;PMS_P2;Temp;Humidity;BMP_temperature;BMP_pressure;BME280_temperature;BME280_humidity;BME280_pressure;Samples;Min_cycle;Max_cycle;Signal;HPM_P1;HPM_P2
2022/07/29 00:00:08;;;;;;;22.55;7.05;;;;;;;;;;4232771;33;20137;-77
2022/07/29 00:02:34;;;;;;;26.25;6.18;;;;;;;;;;4219631;33;20108;-77
2022/07/29 00:36:03;;;;;;;16.40;8.07;;;;;;;;;;4409728;27;20113;-69
2022/07/29 00:38:29;;;;;;;19.42;9.20;;;;;;;;;;4242186;33;20117;-69
2022/07/29 00:40:55;;;;;;;16.77;7.75;;;;;;;;;;4246229;33;20611;-62
2022/07/29 00:43:21;;;;;;;19.08;9.27;;;;;;;;;;4246129;33;20203;-62
2022/07/29 00:45:47;;;;;;;17.98;8.70;;;;;;;;;;4246418;33;20429;-68
2022/07/29 00:48:13;;;;;;;19.98;8.77;;;;;;;;;;4246547;33;20109;-63
2022/07/29 00:50:39;;;;;;;17.23;8.60;;;;;;;;;;4233248;33;20227;-62
2022/07/29 00:53:08;;;;;;;20.58;9.63;;;;;;;;;;4234770;33;20221;-62
2022/07/29 00:55:35;;;;;;;18.45;9.45;;;;;;;;;;4237669;33;20476;-62
2022/07/29 00:58:01;;;;;;;18.67;10.93;;;;;;;;;;4237934;33;20484;-62
2022/07/29 01:00:28;;;;;;;22.25;9.90;;;;;;;;;;4250971;33;20129;-63
2022/07/29 01:02:54;;;;;;;19.67;10.13;;;;;;;;;;4250833;33;20093;-62
2022/07/29 01:05:22;;;;;;;18.33;9.82;;;;;;;;;;4250802;33;20116;-62
2022/07/29 01:07:50;;;;;;;20.65;9.15;;;;;;;;;;4237713;33;20097;-62
2022/07/29 01:10:18;;;;;;;19.77;9.60;;;;;;;;;;4237643;33;20105;-62
2022/07/29 01:12:46;;;;;;;23.48;10.02;;;;;;;;;;4237763;33;20089;-62
2022/07/29 01:15:12;;;;;;;20.40;8.95;;;;;;;;;;4250539;33;20199;-62
2022/07/29 01:18:00;;;;;;;14.52;8.35;;;;;;;;;;4250668;33;20094;-62
2022/07/29 01:20:47;;;;;;;19.35;8.50;;;;;;;;;;4251018;33;20125;-61
2022/07/29 01:23:42;;;;;;;13.98;7.82;;;;;;;;;;4250858;33;20216;-62
2022/07/29 01:26:35;;;;;;;18.48;8.13;;;;;;;;;;4234126;33;20184;-63
2022/07/29 01:29:16;;;;;;;12.27;7.50;;;;;;;;;;4237618;33;20113;-63
2022/07/29 01:32:02;;;;;;;15.95;7.72;;;;;;;;;;4250460;33;20509;-63
2022/07/29 01:35:03;;;;;;;14.93;7.47;;;;;;;;;;4250680;33;20193;-63
2022/07/29 01:37:34;;;;;;;13.43;7.12;;;;;;;;;;4222844;33;20104;-64
2022/07/29 01:40:02;;;;;;;14.27;6.65;;;;;;;;;;4250412;33;20093;-63
2022/07/29 01:42:58;;;;;;;17.25;7.25;;;;;;;;;;4225476;33;20093;-63
2022/07/29 01:45:40;;;;;;;9.23;5.80;;;;;;;;;;4243811;33;20132;-63
2022/07/29 01:48:20;;;;;;;14.18;5.85;;;;;;;;;;4237250;33;20109;-64
2022/07/29 01:51:06;;;;;;;11.02;5.82;;;;;;;;;;4237075;33;20115;-63
2022/07/29 01:53:39;;;;;;;23.20;6.15;;;;;;;;;;4237081;33;20124;-63
2022/07/29 01:56:06;;;;;;;34.45;7.00;;;;;;;;;;4237185;33;20124;-63
2022/07/29 01:58:33;;;;;;;29.85;6.78;;;;;;;;;;4248728;33;20124;-63
2022/07/29 02:01:00;;;;;;;34.60;6.72;;;;;;;;;;4250341;33;20117;-62
2022/07/29 02:03:26;;;;;;;30.12;7.03;;;;;;;;;;4237154;33;20212;-63
2022/07/29 02:05:53;;;;;;;30.50;7.07;;;;;;;;;;4234169;33;20097;-63
2022/07/29 02:08:19;;;;;;;38.65;6.55;;;;;;;;;;4234631;33;20539;-63
2022/07/29 02:10:47;;;;;;;35.17;8.15;;;;;;;;;;4222740;33;20616;-63
2022/07/29 02:13:15;;;;;;;33.50;6.70;;;;;;;;;;4234746;33;20115;-62
2022/07/29 02:15:42;;;;;;;38.47;7.07;;;;;;;;;;4222653;33;20122;-62
2022/07/29 02:18:13;;;;;;;29.60;7.15;;;;;;;;;;4247634;33;20184;-63
2022/07/29 02:20:39;;;;;;;27.10;7.00;;;;;;;;;;4234913;33;20101;-63
2022/07/29 02:23:07;;;;;;;35.90;7.03;;;;;;;;;;4234429;33;20108;-62
2022/07/29 02:25:33;;;;;;;29.10;6.87;;;;;;;;;;4247462;33;20186;-62
2022/07/29 02:28:01;;;;;;;28.90;6.00;;;;;;;;;;4234286;33;20105;-62
2022/07/29 02:30:27;;;;;;;23.80;6.30;;;;;;;;;;4247657;33;20124;-62
2022/07/29 02:32:53;;;;;;;31.92;8.32;;;;;;;;;;4234347;33;20496;-62
2022/07/29 02:35:20;;;;;;;48.22;8.40;;;;;;;;;;4247513;33;20440;-62
2022/07/29 02:38:50;;;;;;;38.20;6.87;;;;;;;;;;4247242;33;20093;-63
2022/07/29 02:40:38;;;;;;;42.97;7.10;;;;;;;;;;4243145;33;20136;-63
2022/07/29 02:43:05;;;;;;;22.52;7.32;;;;;;;;;;4220139;33;20100;-63
2022/07/29 02:45:32;;;;;;;13.55;4.87;;;;;;;;;;4220207;33;20200;-64
2022/07/29 02:48:00;;;;;;;18.45;4.35;;;;;;;;;;4233479;33;20128;-64
2022/07/29 02:50:37;;;;;;;19.10;5.40;;;;;;;;;;4220142;33;20235;-63
2022/07/29 02:53:13;;;;;;;16.67;6.20;;;;;;;;;;4220423;33;20140;-63
2022/07/29 02:55:54;;;;;;;20.60;7.25;;;;;;;;;;4220290;33;20109;-63
2022/07/29 02:58:34;;;;;;;12.52;5.50;;;;;;;;;;4220072;33;20624;-62
2022/07/29 03:01:03;;;;;;;17.25;5.93;;;;;;;;;;4220256;33;20212;-63
2022/07/29 03:03:35;;;;;;;9.50;5.80;;;;;;;;;;4220005;33;20177;-63
2022/07/29 03:06:02;;;;;;;7.90;4.93;;;;;;;;;;4233008;33;20547;-63
2022/07/29 03:08:29;;;;;;;13.98;5.12;;;;;;;;;;4219978;33;20105;-63
2022/07/29 03:10:56;;;;;;;14.13;4.68;;;;;;;;;;4232949;33;20109;-62
2022/07/29 03:13:23;;;;;;;15.23;6.20;;;;;;;;;;4220168;33;20429;-63
2022/07/29 03:15:49;;;;;;;16.20;5.50;;;;;;;;;;4219948;33;20260;-63
2022/07/29 03:18:15;;;;;;;20.55;5.57;;;;;;;;;;4233020;33;20180;-62
2022/07/29 03:20:42;;;;;;;15.80;6.07;;;;;;;;;;4220179;33;20125;-62
2022/07/29 03:23:08;;;;;;;23.50;5.80;;;;;;;;;;4219869;33;20097;-62
2022/07/29 03:25:34;;;;;;;11.50;5.90;;;;;;;;;;4234705;33;20475;-62
2022/07/29 03:28:01;;;;;;;12.40;4.85;;;;;;;;;;4242492;33;20113;-61
2022/07/29 03:30:30;;;;;;;10.77;5.37;;;;;;;;;;4230433;33;20103;-63
2022/07/29 03:32:56;;;;;;;10.55;4.70;;;;;;;;;;4244835;33;20120;-63
2022/07/29 03:35:22;;;;;;;14.05;4.93;;;;;;;;;;4247320;33;20092;-63
2022/07/29 03:37:48;;;;;;;8.70;5.60;;;;;;;;;;4245610;33;20472;-62
2022/07/29 03:40:19;;;;;;;8.40;5.45;;;;;;;;;;4245706;33;20243;-62
2022/07/29 03:42:46;;;;;;;9.48;5.00;;;;;;;;;;4232498;33;20547;-63
2022/07/29 03:45:15;;;;;;;9.48;5.87;;;;;;;;;;4230551;33;20093;-63
2022/07/29 03:47:45;;;;;;;11.80;5.18;;;;;;;;;;4245717;33;20136;-65
2022/07/29 03:50:13;;;;;;;8.23;5.50;;;;;;;;;;4232346;33;20685;-63
2022/07/29 03:52:39;;;;;;;6.70;4.82;;;;;;;;;;4232401;33;20085;-63
2022/07/29 03:55:05;;;;;;;13.50;6.55;;;;;;;;;;4245865;33;20151;-64
2022/07/29 03:57:33;;;;;;;11.05;5.62;;;;;;;;;;4245929;33;20085;-63
2022/07/29 04:00:01;;;;;;;19.23;6.25;;;;;;;;;;4220978;33;20101;-65
2022/07/29 04:02:27;;;;;;;15.43;6.62;;;;;;;;;;4232907;33;20120;-63
2022/07/29 04:04:53;;;;;;;14.38;5.20;;;;;;;;;;4243532;33;20491;-64
2022/07/29 04:07:19;;;;;;;16.10;6.12;;;;;;;;;;4232181;33;20144;-63
2022/07/29 04:09:45;;;;;;;22.05;6.18;;;;;;;;;;4245380;33;20204;-63
2022/07/29 04:12:11;;;;;;;17.37;6.47;;;;;;;;;;4245217;33;20448;-63
2022/07/29 04:14:37;;;;;;;18.23;5.50;;;;;;;;;;4245349;33;20132;-64
2022/07/29 04:17:04;;;;;;;16.80;5.57;;;;;;;;;;4245618;33;20175;-64
2022/07/29 04:19:30;;;;;;;15.43;5.40;;;;;;;;;;4232292;33;20124;-64
2022/07/29 04:21:57;;;;;;;16.23;6.43;;;;;;;;;;4244117;33;20132;-64
2022/07/29 04:24:23;;;;;;;9.85;5.35;;;;;;;;;;4231509;33;20524;-64
2022/07/29 04:26:49;;;;;;;18.83;5.72;;;;;;;;;;4244087;33;20464;-64
2022/07/29 04:29:15;;;;;;;18.35;6.97;;;;;;;;;;4243695;33;20128;-64
2022/07/29 04:31:42;;;;;;;17.30;5.82;;;;;;;;;;4244271;33;20101;-62
2022/07/29 04:34:08;;;;;;;18.42;6.30;;;;;;;;;;4244188;33;20453;-63
2022/07/29 04:36:34;;;;;;;9.73;5.75;;;;;;;;;;4246303;33;20116;-62
2022/07/29 04:39:01;;;;;;;10.73;6.00;;;;;;;;;;4233028;33;20452;-64
2022/07/29 04:41:30;;;;;;;20.83;6.10;;;;;;;;;;4246271;33;20183;-64
2022/07/29 04:43:56;;;;;;;15.23;6.03;;;;;;;;;;4246418;33;20136;-62
2022/07/29 04:46:22;;;;;;;13.35;6.18;;;;;;;;;;4246322;33;20184;-62
2022/07/29 04:48:49;;;;;;;12.07;6.00;;;;;;;;;;4246357;33;20102;-62
2022/07/29 04:51:16;;;;;;;22.98;6.57;;;;;;;;;;4221871;33;20100;-64
2022/07/29 04:53:42;;;;;;;15.85;5.82;;;;;;;;;;4233116;33;20124;-63
2022/07/29 04:56:08;;;;;;;9.07;5.65;;;;;;;;;;4209866;33;20101;-63
2022/07/29 04:58:35;;;;;;;13.55;5.97;;;;;;;;;;4246158;33;20104;-64
2022/07/29 05:01:01;;;;;;;17.87;5.37;;;;;;;;;;4233241;33;20175;-64
2022/07/29 05:03:27;;;;;;;18.27;7.32;;;;;;;;;;4233244;33;20109;-64
2022/07/29 05:05:53;;;;;;;12.75;5.53;;;;;;;;;;4246085;33;20117;-64
2022/07/29 05:08:19;;;;;;;12.15;4.90;;;;;;;;;;4245892;33;20097;-63
2022/07/29 05:10:45;;;;;;;13.07;5.50;;;;;;;;;;4245929;33;20118;-64
2022/07/29 05:13:11;;;;;;;9.60;4.75;;;;;;;;;;4233079;33;20139;-63
2022/07/29 05:15:38;;;;;;;22.35;7.40;;;;;;;;;;4246291;33;20108;-62
2022/07/29 05:18:04;;;;;;;14.43;5.22;;;;;;;;;;4221369;33;20108;-62
2022/07/29 05:20:31;;;;;;;6.35;4.80;;;;;;;;;;4246097;33;20108;-69
2022/07/29 05:23:01;;;;;;;8.27;5.03;;;;;;;;;;4245788;33;20430;-62
2022/07/29 05:25:27;;;;;;;11.55;4.75;;;;;;;;;;4244543;33;20101;-63
2022/07/29 05:27:54;;;;;;;7.57;4.82;;;;;;;;;;4232635;33;20117;-64
2022/07/29 05:30:20;;;;;;;10.23;4.68;;;;;;;;;;4232806;33;20565;-64
2022/07/29 05:32:47;;;;;;;8.43;5.05;;;;;;;;;;4232653;33;20128;-64
2022/07/29 05:35:14;;;;;;;8.20;5.50;;;;;;;;;;4245771;33;20109;-64
2022/07/29 05:37:40;;;;;;;16.33;4.70;;;;;;;;;;4232304;33;20121;-63
2022/07/29 05:40:07;;;;;;;11.02;5.18;;;;;;;;;;4246366;33;20116;-63
2022/07/29 05:42:33;;;;;;;7.12;5.03;;;;;;;;;;4247853;33;20135;-64
2022/07/29 05:45:00;;;;;;;11.00;4.95;;;;;;;;;;4246752;33;20515;-64
2022/07/29 05:47:26;;;;;;;10.57;4.28;;;;;;;;;;4234991;33;20096;-64
2022/07/29 05:49:53;;;;;;;9.13;4.80;;;;;;;;;;4234920;33;20104;-63
2022/07/29 05:52:20;;;;;;;8.05;4.62;;;;;;;;;;4247855;33;20203;-64
2022/07/29 05:54:46;;;;;;;8.80;4.12;;;;;;;;;;4246545;33;20116;-65
2022/07/29 05:57:19;;;;;;;7.40;4.18;;;;;;;;;;4247886;33;20212;-64
2022/07/29 05:59:46;;;;;;;6.50;4.32;;;;;;;;;;4223410;33;20434;-63
2022/07/29 06:02:12;;;;;;;12.25;4.50;;;;;;;;;;4247628;33;20452;-59
2022/07/29 06:04:38;;;;;;;10.80;4.68;;;;;;;;;;4247721;33;20113;-63
2022/07/29 06:07:05;;;;;;;8.57;4.68;;;;;;;;;;4247544;33;20116;-62
2022/07/29 06:09:31;;;;;;;5.22;3.35;;;;;;;;;;4247576;33;20456;-63
2022/07/29 06:11:58;;;;;;;7.40;4.43;;;;;;;;;;4247590;33;20445;-62
2022/07/29 06:14:24;;;;;;;9.55;4.22;;;;;;;;;;4247542;33;20123;-63
2022/07/29 06:16:50;;;;;;;5.93;4.10;;;;;;;;;;4234429;33;20111;-62
2022/07/29 06:19:17;;;;;;;14.98;4.82;;;;;;;;;;4246562;33;20128;-61
2022/07/29 06:21:43;;;;;;;7.93;3.62;;;;;;;;;;4211455;33;20113;-61
2022/07/29 06:24:11;;;;;;;7.80;4.37;;;;;;;;;;4247683;33;20150;-61
2022/07/29 06:26:39;;;;;;;4.70;3.95;;;;;;;;;;4234268;33;20203;-62
2022/07/29 06:29:05;;;;;;;10.10;4.30;;;;;;;;;;4234372;33;20182;-60
2022/07/29 06:31:31;;;;;;;8.10;4.47;;;;;;;;;;4246052;33;20614;-62
2022/07/29 06:33:57;;;;;;;5.55;3.72;;;;;;;;;;4245588;33;20584;-61
2022/07/29 06:36:23;;;;;;;8.55;4.37;;;;;;;;;;4244547;33;20137;-60
2022/07/29 06:38:49;;;;;;;8.88;4.20;;;;;;;;;;4239801;33;20476;-61
2022/07/29 06:41:15;;;;;;;10.43;4.65;;;;;;;;;;4247429;33;20219;-61
2022/07/29 06:43:43;;;;;;;8.10;4.57;;;;;;;;;;4247207;33;20116;-61
2022/07/29 06:46:12;;;;;;;7.43;3.97;;;;;;;;;;4222351;33;20136;-60
2022/07/29 06:48:39;;;;;;;5.28;3.33;;;;;;;;;;4234516;33;20195;-59
2022/07/29 06:51:06;;;;;;;7.35;4.55;;;;;;;;;;4222281;33;20113;-60
2022/07/29 06:53:33;;;;;;;4.10;3.47;;;;;;;;;;4222322;33;20528;-67
2022/07/29 06:56:01;;;;;;;6.60;4.30;;;;;;;;;;4222059;33;20136;-69
2022/07/29 06:58:28;;;;;;;9.23;4.03;;;;;;;;;;4222033;33;20093;-68
2022/07/29 07:00:54;;;;;;;7.50;4.32;;;;;;;;;;4246683;33;20139;-70
2022/07/29 07:03:20;;;;;;;9.40;4.30;;;;;;;;;;4233469;33;20207;-69
2022/07/29 07:05:46;;;;;;;6.03;4.50;;;;;;;;;;4233931;33;20227;-68
2022/07/29 07:08:13;;;;;;;6.87;3.75;;;;;;;;;;4247128;33;20116;-68
2022/07/29 07:10:39;;;;;;;8.70;4.50;;;;;;;;;;4247039;33;20207;-69
2022/07/29 07:13:05;;;;;;;7.43;4.47;;;;;;;;;;4245496;33;20156;-69
2022/07/29 07:15:31;;;;;;;12.25;4.68;;;;;;;;;;4247025;33;20629;-69
2022/07/29 07:17:57;;;;;;;4.40;3.90;;;;;;;;;;4246972;33;20112;-70
2022/07/29 07:20:24;;;;;;;11.45;4.87;;;;;;;;;;4233997;33;20480;-69
2022/07/29 07:22:50;;;;;;;8.05;4.18;;;;;;;;;;4246938;33;20104;-69
2022/07/29 07:25:17;;;;;;;8.52;5.05;;;;;;;;;;4234179;33;20142;-69
2022/07/29 07:27:44;;;;;;;6.53;4.80;;;;;;;;;;4247302;33;20195;-69
2022/07/29 07:30:11;;;;;;;6.40;4.25;;;;;;;;;;4247232;33;20112;-68
2022/07/29 07:32:37;;;;;;;6.60;4.75;;;;;;;;;;4246925;33;20160;-69
2022/07/29 07:35:07;;;;;;;5.50;3.90;;;;;;;;;;4246947;33;20119;-69
2022/07/29 07:37:33;;;;;;;8.80;4.65;;;;;;;;;;4247079;33;20191;-69
2022/07/29 07:39:59;;;;;;;9.00;4.55;;;;;;;;;;4246907;33;20132;-70
2022/07/29 07:42:25;;;;;;;6.10;4.12;;;;;;;;;;4247174;33;20084;-70
2022/07/29 07:44:52;;;;;;;6.28;4.25;;;;;;;;;;4246322;33;20201;-69
2022/07/29 07:47:23;;;;;;;6.80;4.32;;;;;;;;;;4246901;33;20085;-70
2022/07/29 07:49:53;;;;;;;9.90;4.37;;;;;;;;;;4246897;33;20391;-71
2022/07/29 07:52:20;;;;;;;10.18;4.55;;;;;;;;;;4233602;33;20204;-67
2022/07/29 07:54:47;;;;;;;8.60;5.57;;;;;;;;;;4245658;33;20128;-67
2022/07/29 07:57:13;;;;;;;15.02;5.22;;;;;;;;;;4246647;33;20100;-69
2022/07/29 07:59:39;;;;;;;7.30;5.50;;;;;;;;;;4246802;33;20101;-68
2022/07/29 08:02:05;;;;;;;9.25;5.50;;;;;;;;;;4232876;33;20100;-68
2022/07/29 08:04:31;;;;;;;15.43;4.65;;;;;;;;;;4246530;33;20497;-71
2022/07/29 08:06:58;;;;;;;8.43;4.10;;;;;;;;;;4246617;33;20195;-67
2022/07/29 08:09:25;;;;;;;6.57;4.37;;;;;;;;;;4246537;33;20468;-67
2022/07/29 08:11:51;;;;;;;10.07;4.35;;;;;;;;;;4246525;33;20125;-68
2022/07/29 08:14:17;;;;;;;5.57;3.62;;;;;;;;;;4221519;33;20123;-70
2022/07/29 08:16:43;;;;;;;9.98;4.57;;;;;;;;;;4245142;33;20113;-67
2022/07/29 08:19:09;;;;;;;8.18;4.68;;;;;;;;;;4245876;33;20112;-70
2022/07/29 08:21:35;;;;;;;8.55;4.65;;;;;;;;;;4233196;33;20120;-68
2022/07/29 08:26:46;;;;;;;4.53;3.83;;;;;;;;;;4235359;33;20508;-68
2022/07/29 08:29:13;;;;;;;8.18;4.03;;;;;;;;;;4246389;33;20128;-67
2022/07/29 08:31:39;;;;;;;6.95;5.10;;;;;;;;;;4246195;33;20132;-69
2022/07/29 08:34:06;;;;;;;12.07;4.70;;;;;;;;;;4246427;33;20105;-69
2022/07/29 08:36:33;;;;;;;6.78;4.25;;;;;;;;;;4246328;33;20092;-66
2022/07/29 08:38:59;;;;;;;6.90;4.93;;;;;;;;;;4246199;33;20521;-65
2022/07/29 08:41:26;;;;;;;8.23;3.87;;;;;;;;;;4246070;33;20126;-66
2022/07/29 08:43:52;;;;;;;7.35;4.57;;;;;;;;;;4246109;33;20108;-65
2022/07/29 08:46:19;;;;;;;5.53;4.20;;;;;;;;;;4233049;33;20100;-64
2022/07/29 08:48:45;;;;;;;6.07;4.12;;;;;;;;;;4246192;33;20112;-66
2022/07/29 08:51:16;;;;;;;5.45;4.30;;;;;;;;;;4246188;33;20107;-66
2022/07/29 08:53:43;;;;;;;11.38;5.10;;;;;;;;;;4245996;33;20204;-67
2022/07/29 08:56:19;;;;;;;4.93;4.25;;;;;;;;;;4246110;33;20093;-66
2022/07/29 08:58:47;;;;;;;9.70;4.28;;;;;;;;;;4245995;33;20148;-66
2022/07/29 09:01:21;;;;;;;5.78;3.67;;;;;;;;;;4245860;33;20168;-66
2022/07/29 09:03:47;;;;;;;14.05;4.03;;;;;;;;;;4246048;33;20119;-66
2022/07/29 09:06:14;;;;;;;7.40;4.12;;;;;;;;;;4245878;33;20445;-66
2022/07/29 09:08:40;;;;;;;12.32;4.70;;;;;;;;;;4246158;33;20533;-66
2022/07/29 09:11:07;;;;;;;10.05;4.57;;;;;;;;;;4233014;33;20105;-66
2022/07/29 09:13:34;;;;;;;15.02;5.78;;;;;;;;;;4246128;33;20123;-65
2022/07/29 09:16:00;;;;;;;9.25;4.78;;;;;;;;;;4247963;33;20078;-65
2022/07/29 09:18:39;;;;;;;8.30;5.20;;;;;;;;;;4248068;33;20104;-63
2022/07/29 09:24:11;;;;;;;9.98;5.87;;;;;;;;;;4248363;33;20568;-64
2022/07/29 09:26:43;;;;;;;5.30;3.78;;;;;;;;;;4246702;33;20115;-64
2022/07/29 09:29:10;;;;;;;9.90;5.93;;;;;;;;;;4247990;33;20239;-64
2022/07/29 09:31:40;;;;;;;10.00;5.50;;;;;;;;;;4246378;33;20476;-66
2022/07/29 09:34:06;;;;;;;9.70;4.82;;;;;;;;;;4245857;33;20183;-68
2022/07/29 09:36:40;;;;;;;13.52;4.93;;;;;;;;;;4246591;33;20101;-71
2022/07/29 09:39:06;;;;;;;8.75;5.68;;;;;;;;;;4245991;33;20120;-65
2022/07/29 09:41:45;;;;;;;11.73;5.20;;;;;;;;;;4247917;33;20092;-65
2022/07/29 09:44:11;;;;;;;8.05;4.82;;;;;;;;;;4247673;33;20279;-63
2022/07/29 09:46:37;;;;;;;11.32;5.45;;;;;;;;;;4247723;33;20124;-62
2022/07/29 09:49:11;;;;;;;8.68;5.55;;;;;;;;;;4247769;33;20136;-62
2022/07/29 09:51:37;;;;;;;10.50;5.68;;;;;;;;;;4247766;33;20133;-63
2022/07/29 09:54:24;;;;;;;8.63;5.35;;;;;;;;;;4247758;33;20208;-63
2022/07/29 09:56:50;;;;;;;11.27;5.45;;;;;;;;;;4247557;33;20642;-66
2022/07/29 09:59:16;;;;;;;13.35;4.45;;;;;;;;;;4247621;33;20125;-66
2022/07/29 10:01:42;;;;;;;12.43;4.97;;;;;;;;;;4247748;33;20117;-66
2022/07/29 10:04:09;;;;;;;6.85;4.30;;;;;;;;;;4247597;33;20119;-66
2022/07/29 10:06:35;;;;;;;18.35;4.55;;;;;;;;;;4247785;33;20120;-65
2022/07/29 10:09:12;;;;;;;10.27;5.05;;;;;;;;;;4245992;33;20658;-65
2022/07/29 10:11:38;;;;;;;10.07;5.00;;;;;;;;;;4246378;33;20108;-65
2022/07/29 10:14:04;;;;;;;8.55;4.93;;;;;;;;;;4242242;33;20117;-66
2022/07/29 10:16:32;;;;;;;7.53;5.00;;;;;;;;;;4246032;33;20186;-65
2022/07/29 10:19:01;;;;;;;6.80;4.57;;;;;;;;;;4234904;33;20097;-66
2022/07/29 10:21:28;;;;;;;8.60;4.55;;;;;;;;;;4247443;33;20132;-66
2022/07/29 10:23:54;;;;;;;9.02;4.70;;;;;;;;;;4234451;33;20113;-66
2022/07/29 10:26:20;;;;;;;11.52;7.28;;;;;;;;;;4246737;33;20115;-66
2022/07/29 10:28:46;;;;;;;14.98;5.82;;;;;;;;;;4247477;33;20117;-65
2022/07/29 10:31:41;;;;;;;9.60;5.68;;;;;;;;;;4247426;33;20188;-66
2022/07/29 10:34:28;;;;;;;7.75;4.97;;;;;;;;;;4247501;33;20113;-66
2022/07/29 10:37:29;;;;;;;13.82;6.15;;;;;;;;;;4247500;33;20207;-65
2022/07/29 10:43:09;;;;;;;13.75;6.72;;;;;;;;;;4222262;33;20109;-65
2022/07/29 10:45:35;;;;;;;9.05;5.50;;;;;;;;;;4220237;33;20116;-65
2022/07/29 10:48:05;;;;;;;10.55;5.37;;;;;;;;;;4233279;33;20684;-66
2022/07/29 10:51:08;;;;;;;8.93;5.45;;;;;;;;;;4233044;33;20150;-65
2022/07/29 10:54:04;;;;;;;9.63;5.45;;;;;;;;;;4205309;34;20132;-65
2022/07/29 10:56:35;;;;;;;8.18;4.70;;;;;;;;;;4219600;33;20516;-65
2022/07/29 10:59:21;;;;;;;14.45;5.47;;;;;;;;;;4233156;33;20180;-66
2022/07/29 11:01:49;;;;;;;11.52;6.25;;;;;;;;;;4224759;33;20098;-66
2022/07/29 11:04:16;;;;;;;8.77;6.00;;;;;;;;;;4233163;33;20092;-65
2022/07/29 11:07:00;;;;;;;8.35;5.53;;;;;;;;;;4233021;33;20109;-65
2022/07/29 11:09:26;;;;;;;9.67;4.93;;;;;;;;;;4233367;33;20132;-65
2022/07/29 11:11:52;;;;;;;9.05;4.72;;;;;;;;;;4220127;33;20191;-65
2022/07/29 11:14:32;;;;;;;8.27;4.75;;;;;;;;;;4232925;33;20136;-64
2022/07/29 11:17:04;;;;;;;8.73;5.12;;;;;;;;;;4219557;33;20096;-64
2022/07/29 11:19:30;;;;;;;7.32;4.43;;;;;;;;;;4233036;33;20505;-64
2022/07/29 11:21:57;;;;;;;9.95;5.62;;;;;;;;;;4219894;33;20094;-64
2022/07/29 11:24:28;;;;;;;8.60;5.35;;;;;;;;;;4231556;33;20116;-64
2022/07/29 11:27:10;;;;;;;9.13;5.43;;;;;;;;;;4232875;33;20555;-64
2022/07/29 11:29:40;;;;;;;12.60;5.75;;;;;;;;;;4232883;33;20113;-64
2022/07/29 11:32:12;;;;;;;9.05;5.32;;;;;;;;;;4232773;33;20154;-65
2022/07/29 11:34:40;;;;;;;13.85;6.30;;;;;;;;;;4232838;33;20554;-64
2022/07/29 11:37:09;;;;;;;13.68;5.30;;;;;;;;;;4232474;33;20844;-67
2022/07/29 11:39:41;;;;;;;9.32;5.87;;;;;;;;;;4243819;33;20216;-64
2022/07/29 11:42:37;;;;;;;13.23;7.07;;;;;;;;;;4246870;33;20184;-64
2022/07/29 11:45:07;;;;;;;;;;;;;;;;;;4246626;33;20140;-65
2022/07/29 11:47:37;;;;;;;11.82;5.93;;;;;;;;;;4246868;33;19976;-65
2022/07/29 11:50:05;;;;;;;14.65;6.35;;;;;;;;;;4247063;33;20115;-64
2022/07/29 11:52:50;;;;;;;11.75;6.25;;;;;;;;;;4245703;33;20120;-66
2022/07/29 11:55:17;;;;;;;10.73;6.85;;;;;;;;;;4246731;33;20590;-65
2022/07/29 11:57:49;;;;;;;16.00;5.90;;;;;;;;;;4245673;33;20148;-64
2022/07/29 12:00:34;;;;;;;8.25;5.97;;;;;;;;;;4219595;33;20161;-63
2022/07/29 12:03:03;;;;;;;14.57;7.40;;;;;;;;;;4214202;33;20111;-64
2022/07/29 12:05:36;;;;;;;8.30;6.32;;;;;;;;;;4222141;33;20194;-63
2022/07/29 12:08:06;;;;;;;12.10;5.82;;;;;;;;;;4233501;33;20781;-66
2022/07/29 12:10:33;;;;;;;6.55;4.32;;;;;;;;;;4207323;33;20206;-65
2022/07/29 12:13:00;;;;;;;10.40;6.05;;;;;;;;;;4208156;33;20196;-62
2022/07/29 12:15:26;;;;;;;10.48;5.78;;;;;;;;;;4219148;33;20227;-65
2022/07/29 12:17:52;;;;;;;10.32;6.57;;;;;;;;;;4231076;33;20119;-65
2022/07/29 12:20:29;;;;;;;1.65;1.20;;;;;;;;;;4231112;33;20525;-65
2022/07/29 12:22:56;;;;;;;14.35;4.80;;;;;;;;;;4232467;33;20097;-65
2022/07/29 12:25:23;;;;;;;11.05;6.15;;;;;;;;;;4232467;33;20547;-65
2022/07/29 12:28:04;;;;;;;9.68;3.85;;;;;;;;;;4232377;33;20185;-66
2022/07/29 12:30:39;;;;;;;13.90;4.75;;;;;;;;;;4232700;33;20144;-66
2022/07/29 12:33:31;;;;;;;2.75;1.55;;;;;;;;;;4232368;33;20141;-65
2022/07/29 12:36:00;;;;;;;11.50;6.80;;;;;;;;;;4230381;33;20152;-66
2022/07/29 12:38:26;;;;;;;1.30;1.20;;;;;;;;;;4223433;33;20532;-66
2022/07/29 12:40:53;;;;;;;9.18;5.97;;;;;;;;;;4246308;33;20086;-64
2022/07/29 12:43:21;;;;;;;13.98;6.25;;;;;;;;;;4233268;33;20108;-65
2022/07/29 12:45:53;;;;;;;11.85;6.93;;;;;;;;;;4246213;33;20136;-64
2022/07/29 12:48:36;;;;;;;11.50;5.47;;;;;;;;;;4245735;33;20576;-65
2022/07/29 12:51:03;;;;;;;1.00;1.00;;;;;;;;;;4246225;33;20101;-65
2022/07/29 12:53:29;;;;;;;6.95;5.20;;;;;;;;;;4246129;33;20124;-67
2022/07/29 12:55:59;;;;;;;9.82;5.97;;;;;;;;;;4244814;33;20113;-65
2022/07/29 12:58:32;;;;;;;10.80;5.47;;;;;;;;;;4246169;33;20551;-65
2022/07/29 13:01:12;;;;;;;9.18;5.10;;;;;;;;;;4246410;33;20124;-65
2022/07/29 13:03:54;;;;;;;9.77;5.53;;;;;;;;;;4246047;33;20481;-64
2022/07/29 13:06:41;;;;;;;11.43;6.07;;;;;;;;;;4246030;33;20113;-65
2022/07/29 13:09:13;;;;;;;14.38;9.18;;;;;;;;;;4244812;33;20124;-66
2022/07/29 13:11:41;;;;;;;16.17;8.32;;;;;;;;;;4246113;33;20125;-66
2022/07/29 13:14:09;;;;;;;17.77;8.52;;;;;;;;;;4245868;33;20120;-67
2022/07/29 13:16:36;;;;;;;13.35;7.12;;;;;;;;;;4245916;33;20477;-64
2022/07/29 13:19:09;;;;;;;15.68;9.30;;;;;;;;;;4245911;33;20106;-65
2022/07/29 13:21:35;;;;;;;13.35;7.37;;;;;;;;;;4245967;33;20501;-64
2022/07/29 13:24:01;;;;;;;10.20;6.70;;;;;;;;;;4245866;33;20552;-66
2022/07/29 13:26:27;;;;;;;12.15;6.50;;;;;;;;;;4232701;33;20453;-66
2022/07/29 13:28:55;;;;;;;14.00;7.70;;;;;;;;;;4245834;33;20116;-67
2022/07/29 13:31:21;;;;;;;13.23;8.65;;;;;;;;;;4245692;33;20306;-65
2022/07/29 13:33:48;;;;;;;10.10;6.30;;;;;;;;;;4245789;33;20528;-65
2022/07/29 13:36:14;;;;;;;10.77;7.22;;;;;;;;;;4245683;33;20445;-65
2022/07/29 13:38:40;;;;;;;16.65;7.10;;;;;;;;;;4245517;33;20089;-64
2022/07/29 13:41:06;;;;;;;11.48;7.05;;;;;;;;;;4245904;33;20116;-68
2022/07/29 13:43:32;;;;;;;9.68;7.47;;;;;;;;;;4244195;33;20089;-65
2022/07/29 13:45:58;;;;;;;14.65;6.82;;;;;;;;;;4245628;33;20191;-66
2022/07/29 13:48:24;;;;;;;8.75;5.70;;;;;;;;;;4245820;33;20179;-65
2022/07/29 13:50:50;;;;;;;10.40;6.00;;;;;;;;;;4245394;33;20144;-65
2022/07/29 13:53:16;;;;;;;9.27;6.18;;;;;;;;;;4245425;33;20121;-65
2022/07/29 13:55:42;;;;;;;9.65;6.47;;;;;;;;;;4245419;33;20117;-66
2022/07/29 13:58:08;;;;;;;9.48;5.93;;;;;;;;;;4245498;33;20121;-65
2022/07/29 14:00:34;;;;;;;10.80;5.93;;;;;;;;;;4245919;33;20104;-65
2022/07/29 14:03:00;;;;;;;9.18;6.65;;;;;;;;;;4247738;33;20116;-65
2022/07/29 14:05:26;;;;;;;9.65;6.95;;;;;;;;;;4247807;33;20480;-65
2022/07/29 14:07:52;;;;;;;11.55;6.47;;;;;;;;;;4246977;33;20195;-65
2022/07/29 14:10:18;;;;;;;8.32;5.87;;;;;;;;;;4247739;33;20219;-66
2022/07/29 14:12:44;;;;;;;12.43;6.00;;;;;;;;;;4247718;33;20121;-65
2022/07/29 14:15:10;;;;;;;12.93;6.25;;;;;;;;;;4247751;33;20113;-65
2022/07/29 14:17:36;;;;;;;12.15;6.40;;;;;;;;;;4247683;33;20111;-65
2022/07/29 14:20:04;;;;;;;11.55;7.25;;;;;;;;;;4247527;33;20116;-65
2022/07/29 14:22:30;;;;;;;9.82;5.97;;;;;;;;;;4247420;33;20120;-65
2022/07/29 14:24:56;;;;;;;11.70;5.62;;;;;;;;;;4247655;33;20108;-64
2022/07/29 14:27:22;;;;;;;14.90;7.45;;;;;;;;;;4247711;33;20204;-63
2022/07/29 14:29:48;;;;;;;11.02;6.87;;;;;;;;;;4247542;33;20120;-63
2022/07/29 14:32:14;;;;;;;14.43;7.18;;;;;;;;;;4247428;33;20109;-66
2022/07/29 14:34:40;;;;;;;8.90;5.93;;;;;;;;;;4247827;33;20109;-65
2022/07/29 14:37:06;;;;;;;9.57;5.97;;;;;;;;;;4247339;33;20120;-66
2022/07/29 14:39:34;;;;;;;11.25;6.60;;;;;;;;;;4247454;33;20540;-66
2022/07/29 14:42:00;;;;;;;10.32;6.70;;;;;;;;;;4247421;33;20112;-66
2022/07/29 14:44:30;;;;;;;6.07;4.82;;;;;;;;;;4247349;33;20132;-65
2022/07/29 14:47:00;;;;;;;8.15;5.43;;;;;;;;;;4247342;33;20230;-64
2022/07/29 14:49:29;;;;;;;16.62;6.12;;;;;;;;;;4247373;33;20911;-63
2022/07/29 14:51:55;;;;;;;10.18;6.95;;;;;;;;;;4247342;33;20789;-67
2022/07/29 14:54:21;;;;;;;9.48;6.47;;;;;;;;;;4247201;33;20098;-66
2022/07/29 14:56:49;;;;;;;10.48;5.78;;;;;;;;;;4247157;33;20088;-67
2022/07/29 14:59:15;;;;;;;8.18;6.05;;;;;;;;;;4247280;33;20112;-65
2022/07/29 15:01:41;;;;;;;10.00;5.12;;;;;;;;;;4247368;33;20100;-65
2022/07/29 15:04:07;;;;;;;7.93;4.78;;;;;;;;;;4247214;33;20117;-66
2022/07/29 15:06:33;;;;;;;9.18;5.28;;;;;;;;;;4247458;33;20156;-67
2022/07/29 15:08:59;;;;;;;10.25;5.03;;;;;;;;;;4246298;33;20139;-70
2022/07/29 15:11:25;;;;;;;7.15;4.87;;;;;;;;;;4242719;33;20237;-71
2022/07/29 15:13:51;;;;;;;9.70;6.05;;;;;;;;;;4243055;33;20116;-64
2022/07/29 15:16:17;;;;;;;6.25;4.72;;;;;;;;;;4242686;33;20123;-66
2022/07/29 15:18:43;;;;;;;12.95;5.20;;;;;;;;;;4240645;33;20325;-66
2022/07/29 15:21:09;;;;;;;11.12;5.95;;;;;;;;;;4241541;33;20120;-65
2022/07/29 15:23:36;;;;;;;10.77;5.43;;;;;;;;;;4241768;33;22417;-67
2022/07/29 15:26:03;;;;;;;8.48;5.35;;;;;;;;;;4242345;33;20112;-66